sensor_id;sensor_type;location;lat;lon;timestamp;pressure;altitude;pressure_sealevel;temperature;humidity
70242;BME280;57631;52.218;0.108;2022-07-22T00:00:12;102261.11;;;21.62;39.94
70242;BME280;57631;52.218;0.108;2022-07-22T00:02:36;102261.55;;;21.85;39.59
70242;BME280;57631;52.218;0.108;2022-07-22T00:05:02;102262.00;;;22.32;38.61
70242;BME280;57631;52.218;0.108;2022-07-22T00:07:27;102260.32;;;22.08;38.91
70242;BME280;57631;52.218;0.108;2022-07-22T00:09:52;102258.10;;;22.34;38.54
70242;BME280;57631;52.218;0.108;2022-07-22T00:12:17;102257.34;;;22.26;38.34
70242;BME280;57631;52.218;0.108;2022-07-22T00:14:43;102252.74;;;22.21;38.61
70242;BME280;57631;52.218;0.108;2022-07-22T00:17:08;102253.90;;;21.65;39.44
70242;BME280;57631;52.218;0.108;2022-07-22T00:19:34;102253.98;;;22.00;39.05
70242;BME280;57631;52.218;0.108;2022-07-22T00:21:59;102249.37;;;22.03;39.21
70242;BME280;57631;52.218;0.108;2022-07-22T00:24:24;102249.85;;;21.82;39.28
70242;BME280;57631;52.218;0.108;2022-07-22T00:26:50;102251.04;;;21.71;39.19
70242;BME280;57631;52.218;0.108;2022-07-22T00:29:15;102245.62;;;22.05;38.97
70242;BME280;57631;52.218;0.108;2022-07-22T00:31:41;102244.99;;;21.77;39.55
70242;BME280;57631;52.218;0.108;2022-07-22T00:34:06;102244.15;;;22.11;39.54
70242;BME280;57631;52.218;0.108;2022-07-22T00:36:32;102247.38;;;20.18;42.51
70242;BME280;57631;52.218;0.108;2022-07-22T00:38:57;102246.54;;;20.41;42.27
70242;BME280;57631;52.218;0.108;2022-07-22T00:41:22;102242.69;;;20.96;41.10
70242;BME280;57631;52.218;0.108;2022-07-22T00:43:50;102245.01;;;20.52;42.03
70242;BME280;57631;52.218;0.108;2022-07-22T00:46:13;102241.96;;;21.39;40.85
70242;BME280;57631;52.218;0.108;2022-07-22T00:48:38;102237.76;;;21.20;40.93
70242;BME280;57631;52.218;0.108;2022-07-22T00:51:04;102234.49;;;21.06;40.81
70242;BME280;57631;52.218;0.108;2022-07-22T00:53:29;102229.73;;;20.87;41.44
70242;BME280;57631;52.218;0.108;2022-07-22T00:55:55;102228.49;;;20.58;42.13
70242;BME280;57631;52.218;0.108;2022-07-22T00:58:20;102228.18;;;20.55;42.61
70242;BME280;57631;52.218;0.108;2022-07-22T01:00:46;102229.04;;;18.33;46.63
70242;BME280;57631;52.218;0.108;2022-07-22T01:03:11;102228.21;;;19.70;44.88
70242;BME280;57631;52.218;0.108;2022-07-22T01:05:36;102220.30;;;20.59;42.97
70242;BME280;57631;52.218;0.108;2022-07-22T01:08:05;102221.59;;;20.67;42.47
70242;BME280;57631;52.218;0.108;2022-07-22T01:10:27;102219.79;;;20.17;43.38
70242;BME280;57631;52.218;0.108;2022-07-22T01:12:52;102217.39;;;20.48;42.83
70242;BME280;57631;52.218;0.108;2022-07-22T01:15:18;102214.61;;;20.76;42.43
70242;BME280;57631;52.218;0.108;2022-07-22T01:17:43;102216.81;;;20.72;42.75
70242;BME280;57631;52.218;0.108;2022-07-22T01:20:09;102213.80;;;20.45;42.88
70242;BME280;57631;52.218;0.108;2022-07-22T01:22:34;102209.71;;;20.76;42.07
70242;BME280;57631;52.218;0.108;2022-07-22T01:24:59;102205.93;;;20.02;43.75
70242;BME280;57631;52.218;0.108;2022-07-22T01:27:25;102205.89;;;20.17;43.73
70242;BME280;57631;52.218;0.108;2022-07-22T01:29:50;102205.68;;;20.91;42.49
70242;BME280;57631;52.218;0.108;2022-07-22T01:32:16;102205.30;;;20.89;42.48
70242;BME280;57631;52.218;0.108;2022-07-22T01:34:41;102204.62;;;21.04;42.35
70242;BME280;57631;52.218;0.108;2022-07-22T01:37:06;102204.66;;;20.72;42.89
70242;BME280;57631;52.218;0.108;2022-07-22T01:39:32;102206.84;;;21.41;41.89
70242;BME280;57631;52.218;0.108;2022-07-22T01:41:57;102202.80;;;21.03;41.97
70242;BME280;57631;52.218;0.108;2022-07-22T01:44:22;102204.13;;;20.91;42.77
70242;BME280;57631;52.218;0.108;2022-07-22T01:46:48;102198.05;;;21.05;42.65
70242;BME280;57631;52.218;0.108;2022-07-22T01:49:13;102198.53;;;20.89;42.46
70242;BME280;57631;52.218;0.108;2022-07-22T01:51:39;102198.05;;;21.38;41.73
70242;BME280;57631;52.218;0.108;2022-07-22T01:54:04;102201.00;;;21.70;41.21
70242;BME280;57631;52.218;0.108;2022-07-22T01:56:30;102204.85;;;20.46;43.62
70242;BME280;57631;52.218;0.108;2022-07-22T01:58:56;102200.40;;;21.38;42.25
70242;BME280;57631;52.218;0.108;2022-07-22T02:01:20;102198.96;;;20.95;43.05
70242;BME280;57631;52.218;0.108;2022-07-22T02:03:46;102195.63;;;20.98;43.03
70242;BME280;57631;52.218;0.108;2022-07-22T02:06:11;102196.70;;;20.88;43.29
70242;BME280;57631;52.218;0.108;2022-07-22T02:08:36;102202.03;;;20.42;44.23
70242;BME280;57631;52.218;0.108;2022-07-22T02:11:02;102198.05;;;21.16;43.00
70242;BME280;57631;52.218;0.108;2022-07-22T02:13:27;102200.79;;;21.03;43.23
70242;BME280;57631;52.218;0.108;2022-07-22T02:15:53;102197.53;;;21.44;42.61
70242;BME280;57631;52.218;0.108;2022-07-22T02:18:18;102199.64;;;21.23;42.50
70242;BME280;57631;52.218;0.108;2022-07-22T02:20:44;102198.51;;;21.15;42.29
70242;BME280;57631;52.218;0.108;2022-07-22T02:23:09;102198.41;;;21.57;42.38
70242;BME280;57631;52.218;0.108;2022-07-22T02:25:34;102198.81;;;21.41;42.29
70242;BME280;57631;52.218;0.108;2022-07-22T02:28:00;102199.82;;;20.94;43.50
70242;BME280;57631;52.218;0.108;2022-07-22T02:30:25;102193.69;;;21.33;42.97
70242;BME280;57631;52.218;0.108;2022-07-22T02:32:50;102191.94;;;21.10;43.06
70242;BME280;57631;52.218;0.108;2022-07-22T02:35:16;102186.60;;;21.32;42.78
70242;BME280;57631;52.218;0.108;2022-07-22T02:37:41;102188.70;;;20.94;43.87
70242;BME280;57631;52.218;0.108;2022-07-22T02:40:07;102182.71;;;20.53;44.55
70242;BME280;57631;52.218;0.108;2022-07-22T02:42:32;102177.07;;;21.37;43.23
70242;BME280;57631;52.218;0.108;2022-07-22T02:44:57;102174.62;;;21.47;42.59
70242;BME280;57631;52.218;0.108;2022-07-22T02:47:23;102173.89;;;21.68;42.63
70242;BME280;57631;52.218;0.108;2022-07-22T02:49:48;102172.56;;;20.80;43.51
70242;BME280;57631;52.218;0.108;2022-07-22T02:52:14;102170.87;;;20.93;43.63
70242;BME280;57631;52.218;0.108;2022-07-22T02:54:39;102173.40;;;21.38;43.32
70242;BME280;57631;52.218;0.108;2022-07-22T02:57:04;102175.24;;;22.01;42.34
70242;BME280;57631;52.218;0.108;2022-07-22T02:59:30;102175.38;;;21.74;42.29
70242;BME280;57631;52.218;0.108;2022-07-22T03:01:56;102173.91;;;21.67;42.87
70242;BME280;57631;52.218;0.108;2022-07-22T03:04:21;102174.57;;;20.83;44.38
70242;BME280;57631;52.218;0.108;2022-07-22T03:06:46;102174.76;;;20.93;44.14
70242;BME280;57631;52.218;0.108;2022-07-22T03:09:11;102176.32;;;21.05;43.27
70242;BME280;57631;52.218;0.108;2022-07-22T03:11:37;102177.65;;;21.39;43.50
70242;BME280;57631;52.218;0.108;2022-07-22T03:14:02;102179.41;;;20.92;43.85
70242;BME280;57631;52.218;0.108;2022-07-22T03:16:28;102178.37;;;20.98;44.33
70242;BME280;57631;52.218;0.108;2022-07-22T03:18:53;102183.27;;;18.89;48.03
70242;BME280;57631;52.218;0.108;2022-07-22T03:21:20;102186.93;;;20.54;46.11
70242;BME280;57631;52.218;0.108;2022-07-22T03:23:44;102185.92;;;20.67;45.13
70242;BME280;57631;52.218;0.108;2022-07-22T03:26:09;102187.82;;;20.17;46.78
70242;BME280;57631;52.218;0.108;2022-07-22T03:28:35;102184.34;;;20.44;45.62
70242;BME280;57631;52.218;0.108;2022-07-22T03:31:00;102183.63;;;20.38;46.47
70242;BME280;57631;52.218;0.108;2022-07-22T03:33:25;102183.84;;;20.39;45.63
70242;BME280;57631;52.218;0.108;2022-07-22T03:35:51;102184.02;;;20.03;46.17
70242;BME280;57631;52.218;0.108;2022-07-22T03:38:16;102187.16;;;19.54;48.92
70242;BME280;57631;52.218;0.108;2022-07-22T03:40:42;102187.38;;;20.11;46.57
70242;BME280;57631;52.218;0.108;2022-07-22T03:43:07;102183.05;;;19.99;46.72
70242;BME280;57631;52.218;0.108;2022-07-22T03:45:32;102178.42;;;20.08;47.53
70242;BME280;57631;52.218;0.108;2022-07-22T03:47:58;102172.27;;;20.45;46.37
70242;BME280;57631;52.218;0.108;2022-07-22T03:50:23;102164.76;;;20.34;46.06
70242;BME280;57631;52.218;0.108;2022-07-22T03:52:49;102163.36;;;20.43;45.85
70242;BME280;57631;52.218;0.108;2022-07-22T03:55:14;102161.34;;;20.90;45.10
70242;BME280;57631;52.218;0.108;2022-07-22T03:57:39;102163.27;;;20.76;45.71
70242;BME280;57631;52.218;0.108;2022-07-22T04:00:06;102167.30;;;20.17;47.19
70242;BME280;57631;52.218;0.108;2022-07-22T04:02:30;102167.70;;;20.05;46.78
70242;BME280;57631;52.218;0.108;2022-07-22T04:04:56;102165.00;;;20.70;45.63
70242;BME280;57631;52.218;0.108;2022-07-22T04:07:21;102166.62;;;20.86;45.69
70242;BME280;57631;52.218;0.108;2022-07-22T04:09:46;102166.23;;;20.77;45.91
70242;BME280;57631;52.218;0.108;2022-07-22T04:12:12;102165.60;;;20.61;45.79
70242;BME280;57631;52.218;0.108;2022-07-22T04:14:37;102156.83;;;21.12;44.89
70242;BME280;57631;52.218;0.108;2022-07-22T04:17:03;102158.61;;;20.98;45.61
70242;BME280;57631;52.218;0.108;2022-07-22T04:19:28;102160.46;;;20.43;47.07
70242;BME280;57631;52.218;0.108;2022-07-22T04:21:53;102154.43;;;20.91;45.87
70242;BME280;57631;52.218;0.108;2022-07-22T04:24:19;102152.89;;;20.21;46.71
70242;BME280;57631;52.218;0.108;2022-07-22T04:26:44;102142.98;;;21.00;45.22
70242;BME280;57631;52.218;0.108;2022-07-22T04:29:10;102143.64;;;20.43;46.24
70242;BME280;57631;52.218;0.108;2022-07-22T04:31:35;102143.87;;;20.38;46.49
70242;BME280;57631;52.218;0.108;2022-07-22T04:34:00;102143.30;;;21.27;44.85
70242;BME280;57631;52.218;0.108;2022-07-22T04:36:26;102144.01;;;20.91;44.94
70242;BME280;57631;52.218;0.108;2022-07-22T04:38:51;102148.20;;;21.00;44.36
70242;BME280;57631;52.218;0.108;2022-07-22T04:41:17;102144.74;;;21.35;43.66
70242;BME280;57631;52.218;0.108;2022-07-22T04:43:42;102142.07;;;21.53;43.69
70242;BME280;57631;52.218;0.108;2022-07-22T04:46:07;102141.95;;;21.83;43.61
70242;BME280;57631;52.218;0.108;2022-07-22T04:48:34;102144.33;;;21.39;43.96
70242;BME280;57631;52.218;0.108;2022-07-22T04:50:58;102145.21;;;21.56;43.68
70242;BME280;57631;52.218;0.108;2022-07-22T04:53:23;102147.57;;;21.60;43.52
70242;BME280;57631;52.218;0.108;2022-07-22T04:55:49;102145.86;;;21.69;43.89
70242;BME280;57631;52.218;0.108;2022-07-22T04:58:14;102145.17;;;21.76;43.88
70242;BME280;57631;52.218;0.108;2022-07-22T05:00:40;102146.03;;;21.61;43.69
70242;BME280;57631;52.218;0.108;2022-07-22T05:03:05;102145.48;;;21.59;44.17
70242;BME280;57631;52.218;0.108;2022-07-22T05:05:30;102144.29;;;21.43;44.01
70242;BME280;57631;52.218;0.108;2022-07-22T05:07:56;102143.56;;;21.32;44.16
70242;BME280;57631;52.218;0.108;2022-07-22T05:10:21;102144.33;;;20.75;46.10
70242;BME280;57631;52.218;0.108;2022-07-22T05:12:47;102141.97;;;20.79;46.60
70242;BME280;57631;52.218;0.108;2022-07-22T05:15:12;102137.30;;;20.58;46.70
70242;BME280;57631;52.218;0.108;2022-07-22T05:17:38;102132.69;;;20.92;46.11
70242;BME280;57631;52.218;0.108;2022-07-22T05:20:04;102127.83;;;21.26;45.53
70242;BME280;57631;52.218;0.108;2022-07-22T05:22:28;102124.90;;;20.85;45.95
70242;BME280;57631;52.218;0.108;2022-07-22T05:24:54;102128.31;;;21.13;45.50
70242;BME280;57631;52.218;0.108;2022-07-22T05:27:19;102129.52;;;20.87;45.51
70242;BME280;57631;52.218;0.108;2022-07-22T05:29:44;102132.52;;;20.45;46.84
70242;BME280;57631;52.218;0.108;2022-07-22T05:32:10;102124.86;;;21.11;45.73
70242;BME280;57631;52.218;0.108;2022-07-22T05:34:35;102129.03;;;21.35;45.38
70242;BME280;57631;52.218;0.108;2022-07-22T05:37:01;102129.94;;;21.29;45.03
70242;BME280;57631;52.218;0.108;2022-07-22T05:39:26;102132.40;;;21.50;44.32
70242;BME280;57631;52.218;0.108;2022-07-22T05:41:51;102132.14;;;21.78;44.23
70242;BME280;57631;52.218;0.108;2022-07-22T05:44:17;102129.25;;;21.57;44.63
70242;BME280;57631;52.218;0.108;2022-07-22T05:46:42;102129.64;;;21.06;45.00
70242;BME280;57631;52.218;0.108;2022-07-22T05:49:07;102129.43;;;21.34;45.49
70242;BME280;57631;52.218;0.108;2022-07-22T05:51:33;102128.70;;;21.45;45.20
70242;BME280;57631;52.218;0.108;2022-07-22T05:53:58;102128.46;;;20.73;46.06
70242;BME280;57631;52.218;0.108;2022-07-22T05:56:24;102131.29;;;21.25;44.67
70242;BME280;57631;52.218;0.108;2022-07-22T05:58:49;102131.05;;;21.19;45.78
70242;BME280;57631;52.218;0.108;2022-07-22T06:01:14;102135.05;;;21.51;44.85
70242;BME280;57631;52.218;0.108;2022-07-22T06:03:40;102133.09;;;21.40;44.72
70242;BME280;57631;52.218;0.108;2022-07-22T06:06:05;102136.04;;;21.32;44.85
70242;BME280;57631;52.218;0.108;2022-07-22T06:08:31;102140.59;;;21.51;45.32
70242;BME280;57631;52.218;0.108;2022-07-22T06:10:57;102141.96;;;21.02;46.19
70242;BME280;57631;52.218;0.108;2022-07-22T06:13:22;102146.55;;;20.71;47.16
70242;BME280;57631;52.218;0.108;2022-07-22T06:15:47;102147.45;;;21.43;46.00
70242;BME280;57631;52.218;0.108;2022-07-22T06:18:12;102149.26;;;21.41;45.52
70242;BME280;57631;52.218;0.108;2022-07-22T06:20:38;102150.57;;;21.76;45.30
70242;BME280;57631;52.218;0.108;2022-07-22T06:23:03;102153.04;;;21.52;45.21
70242;BME280;57631;52.218;0.108;2022-07-22T06:25:28;102155.14;;;20.57;48.33
70242;BME280;57631;52.218;0.108;2022-07-22T06:27:53;102152.66;;;20.64;47.94
70242;BME280;57631;52.218;0.108;2022-07-22T06:30:19;102150.42;;;20.84;47.37
70242;BME280;57631;52.218;0.108;2022-07-22T06:32:44;102152.19;;;20.68;47.63
70242;BME280;57631;52.218;0.108;2022-07-22T06:35:10;102148.76;;;20.90;46.72
70242;BME280;57631;52.218;0.108;2022-07-22T06:37:35;102146.61;;;21.25;46.62
70242;BME280;57631;52.218;0.108;2022-07-22T06:40:01;102151.91;;;20.97;47.73
70242;BME280;57631;52.218;0.108;2022-07-22T06:42:26;102149.70;;;20.77;47.80
70242;BME280;57631;52.218;0.108;2022-07-22T06:44:52;102153.05;;;20.93;47.48
70242;BME280;57631;52.218;0.108;2022-07-22T06:47:16;102152.98;;;20.98;47.35
70242;BME280;57631;52.218;0.108;2022-07-22T06:49:42;102157.63;;;21.15;47.97
70242;BME280;57631;52.218;0.108;2022-07-22T06:52:07;102154.27;;;21.10;47.22
70242;BME280;57631;52.218;0.108;2022-07-22T06:54:32;102151.54;;;20.95;47.49
70242;BME280;57631;52.218;0.108;2022-07-22T06:56:58;102151.13;;;20.55;47.74
70242;BME280;57631;52.218;0.108;2022-07-22T06:59:23;102144.81;;;21.45;46.75
70242;BME280;57631;52.218;0.108;2022-07-22T07:01:49;102143.80;;;21.65;46.73
70242;BME280;57631;52.218;0.108;2022-07-22T07:04:14;102141.51;;;21.62;46.42
70242;BME280;57631;52.218;0.108;2022-07-22T07:06:40;102139.47;;;20.95;47.14
70242;BME280;57631;52.218;0.108;2022-07-22T07:09:05;102140.88;;;21.53;46.15
70242;BME280;57631;52.218;0.108;2022-07-22T07:11:30;102137.93;;;21.05;47.58
70242;BME280;57631;52.218;0.108;2022-07-22T07:13:56;102135.09;;;20.71;47.85
70242;BME280;57631;52.218;0.108;2022-07-22T07:16:21;102134.36;;;21.03;47.79
70242;BME280;57631;52.218;0.108;2022-07-22T07:18:46;102130.92;;;21.01;47.31
70242;BME280;57631;52.218;0.108;2022-07-22T07:21:11;102127.38;;;20.98;47.35
70242;BME280;57631;52.218;0.108;2022-07-22T07:23:37;102128.38;;;21.37;46.72
70242;BME280;57631;52.218;0.108;2022-07-22T07:26:02;102128.15;;;21.70;45.65
70242;BME280;57631;52.218;0.108;2022-07-22T07:28:27;102124.40;;;21.18;46.62
70242;BME280;57631;52.218;0.108;2022-07-22T07:30:53;102131.89;;;20.31;49.18
70242;BME280;57631;52.218;0.108;2022-07-22T07:33:18;102135.37;;;20.30;49.61
70242;BME280;57631;52.218;0.108;2022-07-22T07:35:44;102130.94;;;20.80;48.72
70242;BME280;57631;52.218;0.108;2022-07-22T07:38:09;102134.89;;;20.85;48.57
70242;BME280;57631;52.218;0.108;2022-07-22T07:40:34;102132.48;;;21.15;47.60
70242;BME280;57631;52.218;0.108;2022-07-22T07:43:00;102131.44;;;21.28;46.91
70242;BME280;57631;52.218;0.108;2022-07-22T07:45:25;102130.68;;;21.65;46.12
70242;BME280;57631;52.218;0.108;2022-07-22T07:47:50;102129.28;;;21.84;44.99
70242;BME280;57631;52.218;0.108;2022-07-22T07:50:16;102127.80;;;20.87;47.24
70242;BME280;57631;52.218;0.108;2022-07-22T07:52:43;102127.87;;;20.79;48.01
70242;BME280;57631;52.218;0.108;2022-07-22T07:55:08;102125.07;;;21.38;47.25
70242;BME280;57631;52.218;0.108;2022-07-22T07:57:32;102125.42;;;20.81;47.16
70242;BME280;57631;52.218;0.108;2022-07-22T07:59:57;102127.31;;;20.75;47.27
70242;BME280;57631;52.218;0.108;2022-07-22T08:02:23;102127.28;;;21.12;46.92
70242;BME280;57631;52.218;0.108;2022-07-22T08:04:48;102127.95;;;21.42;46.68
70242;BME280;57631;52.218;0.108;2022-07-22T08:07:14;102128.90;;;21.35;46.25
70242;BME280;57631;52.218;0.108;2022-07-22T08:09:39;102125.16;;;21.86;45.09
70242;BME280;57631;52.218;0.108;2022-07-22T08:12:05;102126.92;;;21.73;45.02
70242;BME280;57631;52.218;0.108;2022-07-22T08:14:30;102126.04;;;21.55;45.74
70242;BME280;57631;52.218;0.108;2022-07-22T08:16:56;102123.61;;;21.49;46.07
70242;BME280;57631;52.218;0.108;2022-07-22T08:19:20;102124.78;;;21.11;46.32
70242;BME280;57631;52.218;0.108;2022-07-22T08:21:46;102123.14;;;22.07;44.06
70242;BME280;57631;52.218;0.108;2022-07-22T08:24:11;102122.06;;;22.04;44.19
70242;BME280;57631;52.218;0.108;2022-07-22T08:26:37;102117.30;;;22.06;44.35
70242;BME280;57631;52.218;0.108;2022-07-22T08:29:02;102112.69;;;21.84;44.49
70242;BME280;57631;52.218;0.108;2022-07-22T08:31:28;102112.35;;;21.78;44.38
70242;BME280;57631;52.218;0.108;2022-07-22T08:33:53;102110.14;;;22.40;43.08
70242;BME280;57631;52.218;0.108;2022-07-22T08:36:18;102106.54;;;22.47;42.97
70242;BME280;57631;52.218;0.108;2022-07-22T08:38:44;102104.67;;;22.40;43.63
70242;BME280;57631;52.218;0.108;2022-07-22T08:41:09;102106.34;;;23.21;41.63
70242;BME280;57631;52.218;0.108;2022-07-22T08:43:35;102100.27;;;22.58;43.81
70242;BME280;57631;52.218;0.108;2022-07-22T08:46:02;102100.62;;;22.02;43.76
70242;BME280;57631;52.218;0.108;2022-07-22T08:48:25;102101.98;;;22.67;41.86
70242;BME280;57631;52.218;0.108;2022-07-22T08:50:51;102096.25;;;22.79;40.13
70242;BME280;57631;52.218;0.108;2022-07-22T08:53:16;102094.26;;;22.94;40.02
70242;BME280;57631;52.218;0.108;2022-07-22T08:55:42;102092.41;;;23.54;39.50
70242;BME280;57631;52.218;0.108;2022-07-22T08:58:07;102096.14;;;21.90;42.40
70242;BME280;57631;52.218;0.108;2022-07-22T09:00:32;102092.85;;;22.64;40.88
70242;BME280;57631;52.218;0.108;2022-07-22T09:02:57;102098.97;;;22.94;39.53
70242;BME280;57631;52.218;0.108;2022-07-22T09:05:23;102099.90;;;21.96;40.18
70242;BME280;57631;52.218;0.108;2022-07-22T09:07:48;102097.41;;;22.19;39.67
70242;BME280;57631;52.218;0.108;2022-07-22T09:10:16;102097.19;;;21.98;40.28
70242;BME280;57631;52.218;0.108;2022-07-22T09:15:05;102099.55;;;21.83;40.39
70242;BME280;57631;52.218;0.108;2022-07-22T09:17:30;102103.96;;;23.12;38.34
70242;BME280;57631;52.218;0.108;2022-07-22T09:19:56;102101.66;;;22.50;39.21
70242;BME280;57631;52.218;0.108;2022-07-22T09:24:45;102102.50;;;21.66;41.17
70242;BME280;57631;52.218;0.108;2022-07-22T09:29:36;102102.90;;;23.05;38.91
70242;BME280;57631;52.218;0.108;2022-07-22T09:32:02;102097.90;;;23.20;38.21
70242;BME280;57631;52.218;0.108;2022-07-22T09:34:28;102097.11;;;22.25;39.31
70242;BME280;57631;52.218;0.108;2022-07-22T09:36:54;102096.50;;;22.60;38.46
70242;BME280;57631;52.218;0.108;2022-07-22T09:39:25;102092.75;;;23.73;37.73
70242;BME280;57631;52.218;0.108;2022-07-22T09:46:35;102090.22;;;22.45;39.99
70242;BME280;57631;52.218;0.108;2022-07-22T09:48:59;102088.64;;;20.97;40.92
70242;BME280;57631;52.218;0.108;2022-07-22T09:51:24;102080.56;;;22.69;38.91
70242;BME280;57631;52.218;0.108;2022-07-22T09:53:50;102079.70;;;23.57;37.16
70242;BME280;57631;52.218;0.108;2022-07-22T09:56:16;102078.66;;;23.48;36.39
70242;BME280;57631;52.218;0.108;2022-07-22T09:58:41;102088.28;;;23.12;37.69
70242;BME280;57631;52.218;0.108;2022-07-22T10:01:06;102093.47;;;23.36;37.37
70242;BME280;57631;52.218;0.108;2022-07-22T10:03:34;102092.28;;;23.36;36.89
70242;BME280;57631;52.218;0.108;2022-07-22T10:05:58;102080.86;;;23.82;36.56
70242;BME280;57631;52.218;0.108;2022-07-22T10:08:24;102079.69;;;24.19;36.07
70242;BME280;57631;52.218;0.108;2022-07-22T10:10:48;102073.66;;;22.39;38.98
70242;BME280;57631;52.218;0.108;2022-07-22T10:13:12;102081.44;;;24.17;36.85
70242;BME280;57631;52.218;0.108;2022-07-22T10:15:38;102077.15;;;24.52;35.93
70242;BME280;57631;52.218;0.108;2022-07-22T10:18:05;102075.32;;;24.69;35.21
70242;BME280;57631;52.218;0.108;2022-07-22T10:20:29;102070.56;;;25.57;34.55
70242;BME280;57631;52.218;0.108;2022-07-22T10:22:56;102078.56;;;24.91;35.63
70242;BME280;57631;52.218;0.108;2022-07-22T10:25:21;102067.33;;;25.36;34.05
70242;BME280;57631;52.218;0.108;2022-07-22T10:27:46;102064.25;;;25.52;34.05
70242;BME280;57631;52.218;0.108;2022-07-22T10:30:12;102064.70;;;25.67;33.93
70242;BME280;57631;52.218;0.108;2022-07-22T10:32:35;102065.62;;;25.11;34.42
70242;BME280;57631;52.218;0.108;2022-07-22T10:42:16;102041.08;;;26.08;32.79
70242;BME280;57631;52.218;0.108;2022-07-22T10:44:47;102037.49;;;25.95;33.55
70242;BME280;57631;52.218;0.108;2022-07-22T10:47:07;102038.04;;;26.13;33.31
70242;BME280;57631;52.218;0.108;2022-07-22T10:49:33;102032.64;;;25.65;33.64
70242;BME280;57631;52.218;0.108;2022-07-22T10:54:23;102023.92;;;28.00;31.00
70242;BME280;57631;52.218;0.108;2022-07-22T10:56:48;102026.33;;;27.00;32.45
70242;BME280;57631;52.218;0.108;2022-07-22T10:59:15;102024.48;;;28.74;29.98
70242;BME280;57631;52.218;0.108;2022-07-22T11:01:41;102018.83;;;28.82;28.89
70242;BME280;57631;52.218;0.108;2022-07-22T11:04:11;102030.11;;;27.00;31.61
70242;BME280;57631;52.218;0.108;2022-07-22T11:06:30;102032.04;;;25.65;33.65
70242;BME280;57631;52.218;0.108;2022-07-22T11:08:58;102024.98;;;26.22;32.43
70242;BME280;57631;52.218;0.108;2022-07-22T11:13:46;102018.49;;;27.51;30.53
70242;BME280;57631;52.218;0.108;2022-07-22T11:16:17;102011.75;;;27.55;30.63
70242;BME280;57631;52.218;0.108;2022-07-22T11:21:02;102021.77;;;27.26;31.00
70242;BME280;57631;52.218;0.108;2022-07-22T11:23:28;102012.41;;;27.32;30.81
70242;BME280;57631;52.218;0.108;2022-07-22T11:25:56;102012.70;;;26.58;31.81
70242;BME280;57631;52.218;0.108;2022-07-22T11:28:18;102006.34;;;26.62;32.08
70242;BME280;57631;52.218;0.108;2022-07-22T11:30:43;102000.65;;;26.71;31.96
70242;BME280;57631;52.218;0.108;2022-07-22T11:33:08;101998.73;;;26.64;31.09
70242;BME280;57631;52.218;0.108;2022-07-22T11:35:34;101993.82;;;26.35;31.78
70242;BME280;57631;52.218;0.108;2022-07-22T11:37:59;101996.59;;;26.02;32.79
70242;BME280;57631;52.218;0.108;2022-07-22T11:40:31;101996.99;;;27.14;31.27
70242;BME280;57631;52.218;0.108;2022-07-22T11:45:15;101987.80;;;29.58;28.88
70242;BME280;57631;52.218;0.108;2022-07-22T11:47:48;101980.24;;;30.61;27.44
70242;BME280;57631;52.218;0.108;2022-07-22T11:50:07;101968.49;;;31.93;25.63
70242;BME280;57631;52.218;0.108;2022-07-22T11:52:31;101965.69;;;31.79;25.32
70242;BME280;57631;52.218;0.108;2022-07-22T11:54:57;101966.33;;;30.73;25.81
70242;BME280;57631;52.218;0.108;2022-07-22T11:57:22;101973.41;;;32.98;24.01
70242;BME280;57631;52.218;0.108;2022-07-22T11:59:47;101974.29;;;34.07;22.06
70242;BME280;57631;52.218;0.108;2022-07-22T12:02:13;101961.30;;;35.03;21.09
70242;BME280;57631;52.218;0.108;2022-07-22T12:04:38;101960.15;;;35.62;20.80
70242;BME280;57631;52.218;0.108;2022-07-22T12:07:04;101944.73;;;35.74;20.22
70242;BME280;57631;52.218;0.108;2022-07-22T12:09:32;101945.44;;;36.25;20.37
70242;BME280;57631;52.218;0.108;2022-07-22T12:11:56;101947.75;;;34.49;21.25
70242;BME280;57631;52.218;0.108;2022-07-22T12:14:21;101944.55;;;34.38;21.87
70242;BME280;57631;52.218;0.108;2022-07-22T12:16:53;101935.32;;;35.59;20.60
70242;BME280;57631;52.218;0.108;2022-07-22T12:19:11;101936.43;;;33.38;22.58
70242;BME280;57631;52.218;0.108;2022-07-22T12:21:48;101932.49;;;33.92;22.22
70242;BME280;57631;52.218;0.108;2022-07-22T12:24:02;101936.73;;;34.70;20.94
70242;BME280;57631;52.218;0.108;2022-07-22T12:31:16;101924.63;;;32.31;22.79
70242;BME280;57631;52.218;0.108;2022-07-22T12:33:46;101919.38;;;32.57;23.36
70242;BME280;57631;52.218;0.108;2022-07-22T12:36:07;101914.04;;;33.97;21.81
70242;BME280;57631;52.218;0.108;2022-07-22T12:38:33;101910.23;;;34.16;21.65
70242;BME280;57631;52.218;0.108;2022-07-22T12:43:25;101920.99;;;31.76;23.99
70242;BME280;57631;52.218;0.108;2022-07-22T12:45:48;101921.51;;;31.07;23.83
70242;BME280;57631;52.218;0.108;2022-07-22T12:48:13;101923.11;;;29.32;26.01
70242;BME280;57631;52.218;0.108;2022-07-22T12:50:41;101916.59;;;30.68;25.05
70242;BME280;57631;52.218;0.108;2022-07-22T12:53:05;101914.67;;;30.80;24.78
70242;BME280;57631;52.218;0.108;2022-07-22T12:55:30;101919.36;;;30.61;25.65
70242;BME280;57631;52.218;0.108;2022-07-22T12:57:55;101921.05;;;30.60;25.01
70242;BME280;57631;52.218;0.108;2022-07-22T13:00:21;101913.17;;;30.31;25.72
70242;BME280;57631;52.218;0.108;2022-07-22T13:02:45;101920.88;;;29.78;26.54
70242;BME280;57631;52.218;0.108;2022-07-22T13:05:10;101918.23;;;28.37;27.88
70242;BME280;57631;52.218;0.108;2022-07-22T13:07:36;101907.49;;;30.71;25.55
70242;BME280;57631;52.218;0.108;2022-07-22T13:10:01;101909.67;;;31.29;24.52
70242;BME280;57631;52.218;0.108;2022-07-22T13:12:26;101906.64;;;30.78;25.09
70242;BME280;57631;52.218;0.108;2022-07-22T13:14:52;101907.28;;;31.51;24.46